Time;durP1;ratioP1;P1;durP2;ratioP2;P2;SDS_P1;SDS_P2;PMS_P1;PMS_P2;Temp;Humidity;BMP_temperature;BMP_pressure;BME280_temperature;BME280_humidity;BME280_pressure;Samples;Min_cycle;Max_cycle;Signal;HPM_P1;HPM_P2
2022/09/14 00:01:10;;;;;;;26.25;13.55;;;;;;;;;;4996144;28;20065;-66
2022/09/14 00:03:37;;;;;;;25.70;13.43;;;;;;;;;;4981018;28;20080;-65
2022/09/14 00:06:08;;;;;;;36.15;14.20;;;;;;;;;;4977485;28;20038;-65
2022/09/14 00:08:35;;;;;;;21.33;13.02;;;;;;;;;;4977477;28;20618;-64
2022/09/14 00:11:06;;;;;;;34.75;15.18;;;;;;;;;;5005752;28;20037;-63
2022/09/14 00:13:33;;;;;;;24.70;12.98;;;;;;;;;;4985819;28;20523;-64
2022/09/14 00:16:06;;;;;;;29.77;14.02;;;;;;;;;;5004189;28;20581;-65
2022/09/14 00:18:34;;;;;;;26.23;14.60;;;;;;;;;;5009724;28;20048;-63
2022/09/14 00:21:01;;;;;;;27.90;13.80;;;;;;;;;;5011848;28;20037;-63
2022/09/14 00:23:28;;;;;;;29.38;13.95;;;;;;;;;;5013187;28;20041;-61
2022/09/14 00:25:54;;;;;;;26.08;13.55;;;;;;;;;;5005286;28;20786;-62
2022/09/14 00:28:21;;;;;;;19.88;13.25;;;;;;;;;;5014653;28;20034;-61
2022/09/14 00:30:48;;;;;;;32.88;13.70;;;;;;;;;;5015622;28;20151;-63
2022/09/14 00:33:15;;;;;;;26.60;13.27;;;;;;;;;;5015633;28;20577;-63
2022/09/14 00:35:41;;;;;;;22.90;13.50;;;;;;;;;;5008496;28;20467;-62
2022/09/14 00:38:11;;;;;;;28.65;13.27;;;;;;;;;;5014542;28;20041;-64
2022/09/14 00:40:38;;;;;;;22.95;12.35;;;;;;;;;;4998159;28;20046;-63
2022/09/14 00:43:08;;;;;;;26.10;12.95;;;;;;;;;;4993243;28;20052;-64
2022/09/14 00:45:35;;;;;;;22.67;13.13;;;;;;;;;;5048210;28;20045;-63
2022/09/14 00:48:01;;;;;;;26.77;12.52;;;;;;;;;;5050747;28;20124;-64
2022/09/14 00:50:28;;;;;;;35.50;12.45;;;;;;;;;;5013346;28;20053;-65
2022/09/14 00:52:55;;;;;;;20.10;12.85;;;;;;;;;;5013565;28;20942;-63
2022/09/14 00:55:23;;;;;;;24.92;14.00;;;;;;;;;;5027374;28;20033;-65
2022/09/14 00:57:51;;;;;;;23.20;12.65;;;;;;;;;;5049317;28;20087;-65
2022/09/14 01:00:37;;;;;;;24.20;15.35;;;;;;;;;;5033997;28;20106;-63
2022/09/14 01:03:04;;;;;;;24.38;12.52;;;;;;;;;;5034589;28;20040;-65
2022/09/14 01:05:53;;;;;;;23.27;12.25;;;;;;;;;;5036413;28;20037;-65
2022/09/14 01:08:20;;;;;;;27.00;10.95;;;;;;;;;;5006821;28;20037;-65
2022/09/14 01:11:00;;;;;;;19.70;10.52;;;;;;;;;;5033516;28;20076;-65
2022/09/14 01:13:46;;;;;;;20.45;10.20;;;;;;;;;;5034391;28;20171;-65
2022/09/14 01:16:25;;;;;;;19.95;10.63;;;;;;;;;;5036629;28;20056;-65
2022/09/14 01:18:57;;;;;;;20.25;10.00;;;;;;;;;;5034870;28;20119;-64
2022/09/14 01:21:26;;;;;;;18.95;9.57;;;;;;;;;;5033226;28;20045;-64
2022/09/14 01:23:53;;;;;;;17.85;8.73;;;;;;;;;;5039796;28;20144;-66
2022/09/14 01:26:23;;;;;;;21.50;9.65;;;;;;;;;;5036983;28;20041;-64
2022/09/14 01:28:50;;;;;;;16.58;9.25;;;;;;;;;;5032208;28;20210;-65
2022/09/14 01:31:21;;;;;;;18.48;9.63;;;;;;;;;;5021599;28;20097;-68
2022/09/14 01:33:53;;;;;;;19.48;10.40;;;;;;;;;;5016719;28;20060;-65
2022/09/14 03:15:59;;;;;;;23.60;13.25;;;;;;;;;;4974710;28;20433;-66
2022/09/14 03:18:25;;;;;;;29.13;12.25;;;;;;;;;;4960756;28;20070;-66
2022/09/14 03:20:52;;;;;;;29.83;13.23;;;;;;;;;;4962962;28;20039;-66
2022/09/14 03:23:19;;;;;;;25.90;12.63;;;;;;;;;;4958936;28;20038;-66
2022/09/14 03:25:46;;;;;;;28.50;12.95;;;;;;;;;;4954674;28;20054;-68
2022/09/14 03:28:12;;;;;;;31.70;12.57;;;;;;;;;;4960536;28;20042;-65
2022/09/14 03:30:39;;;;;;;31.10;13.23;;;;;;;;;;4961436;28;20066;-65
2022/09/14 03:33:06;;;;;;;29.40;12.57;;;;;;;;;;4959811;28;20465;-67
2022/09/14 03:35:32;;;;;;;29.45;12.82;;;;;;;;;;4959570;28;20074;-65
2022/09/14 03:37:59;;;;;;;31.50;13.13;;;;;;;;;;4959637;28;20043;-67
2022/09/14 03:40:26;;;;;;;27.63;13.88;;;;;;;;;;4961207;28;20046;-66
2022/09/14 03:42:53;;;;;;;27.60;12.60;;;;;;;;;;4962221;28;20045;-65
2022/09/14 03:45:20;;;;;;;29.98;13.23;;;;;;;;;;4961686;28;20408;-65
2022/09/14 03:47:47;;;;;;;36.45;13.88;;;;;;;;;;4962474;28;20125;-66
2022/09/14 03:50:15;;;;;;;28.20;13.32;;;;;;;;;;4958609;28;20499;-67
2022/09/14 03:52:41;;;;;;;33.38;13.23;;;;;;;;;;4959439;28;20046;-67
2022/09/14 03:55:08;;;;;;;30.85;14.05;;;;;;;;;;4961150;28;20084;-67
2022/09/14 03:57:36;;;;;;;31.90;12.35;;;;;;;;;;4956116;28;20065;-66
2022/09/14 04:00:03;;;;;;;26.17;12.85;;;;;;;;;;4959713;28;20057;-67
2022/09/14 04:02:30;;;;;;;28.90;12.98;;;;;;;;;;4964126;28;21480;-66
2022/09/14 04:04:56;;;;;;;23.83;12.52;;;;;;;;;;4963392;28;20102;-67
2022/09/14 04:07:23;;;;;;;30.70;12.70;;;;;;;;;;4962135;28;20460;-67
2022/09/14 04:09:49;;;;;;;28.00;13.07;;;;;;;;;;4960560;28;20118;-67
2022/09/14 04:12:16;;;;;;;27.80;12.88;;;;;;;;;;4959160;28;20039;-66
2022/09/14 04:14:43;;;;;;;27.60;13.00;;;;;;;;;;4974964;28;20133;-66
2022/09/14 04:17:09;;;;;;;33.67;13.07;;;;;;;;;;4957762;28;20102;-65
2022/09/14 04:19:38;;;;;;;29.60;13.30;;;;;;;;;;4957605;28;20058;-66
2022/09/14 04:22:04;;;;;;;34.72;13.45;;;;;;;;;;4959626;28;20563;-68
2022/09/14 04:24:31;;;;;;;21.63;12.73;;;;;;;;;;4956032;28;20129;-67
2022/09/14 04:26:58;;;;;;;24.67;12.70;;;;;;;;;;4951307;28;20098;-67
2022/09/14 04:29:24;;;;;;;24.05;12.02;;;;;;;;;;4945081;28;20130;-68
2022/09/14 04:31:51;;;;;;;30.15;13.32;;;;;;;;;;4953880;28;20421;-68
2022/09/14 04:34:18;;;;;;;26.45;12.52;;;;;;;;;;4946793;28;20046;-67
2022/09/14 04:36:44;;;;;;;26.85;12.73;;;;;;;;;;4943422;28;20135;-65
2022/09/14 04:39:15;;;;;;;25.70;11.93;;;;;;;;;;4945814;28;20050;-66
2022/09/14 04:41:42;;;;;;;26.38;12.52;;;;;;;;;;4944587;28;20047;-68
2022/09/14 04:44:09;;;;;;;28.45;13.07;;;;;;;;;;4945725;28;20059;-66
2022/09/14 04:46:35;;;;;;;24.92;12.18;;;;;;;;;;4942932;28;20039;-65
2022/09/14 04:49:02;;;;;;;21.42;12.02;;;;;;;;;;4945224;28;21850;-67
2022/09/14 04:51:30;;;;;;;23.30;12.00;;;;;;;;;;4944471;28;20034;-67
2022/09/14 04:54:00;;;;;;;34.17;13.18;;;;;;;;;;4947468;28;20055;-67
2022/09/14 04:56:28;;;;;;;29.10;12.95;;;;;;;;;;4957753;28;20040;-66
2022/09/14 04:58:57;;;;;;;25.83;12.60;;;;;;;;;;4957226;28;20091;-67
2022/09/14 05:01:28;;;;;;;37.25;13.82;;;;;;;;;;4945492;28;20097;-67
2022/09/14 05:03:55;;;;;;;29.95;13.15;;;;;;;;;;4945210;28;20468;-67
2022/09/14 05:06:27;;;;;;;22.40;12.90;;;;;;;;;;4943962;28;20145;-65
2022/09/14 05:08:54;;;;;;;24.58;13.65;;;;;;;;;;4945994;28;20053;-65
2022/09/14 05:11:22;;;;;;;24.55;12.75;;;;;;;;;;4947413;28;20039;-66
2022/09/14 05:13:49;;;;;;;32.58;12.70;;;;;;;;;;4946755;28;20062;-67
2022/09/14 05:16:17;;;;;;;26.25;13.25;;;;;;;;;;4948922;28;20146;-66
2022/09/14 05:18:44;;;;;;;31.05;13.05;;;;;;;;;;4946908;28;20094;-66
2022/09/14 05:21:12;;;;;;;26.23;13.00;;;;;;;;;;4947265;28;20118;-66
2022/09/14 05:23:38;;;;;;;32.97;12.80;;;;;;;;;;4946962;28;20054;-67
2022/09/14 05:26:06;;;;;;;23.50;12.25;;;;;;;;;;4944155;28;20038;-67
2022/09/14 05:28:33;;;;;;;24.02;11.85;;;;;;;;;;4946687;28;20039;-66
2022/09/14 05:31:00;;;;;;;31.27;12.48;;;;;;;;;;4955111;28;20092;-66
2022/09/14 05:33:26;;;;;;;27.25;13.27;;;;;;;;;;4942898;28;21152;-67
2022/09/14 05:35:59;;;;;;;23.83;12.48;;;;;;;;;;4944013;28;20086;-66
2022/09/14 05:38:27;;;;;;;27.35;12.65;;;;;;;;;;4942867;28;20058;-67
2022/09/14 05:40:54;;;;;;;23.50;12.15;;;;;;;;;;4941754;28;20452;-67
2022/09/14 05:43:21;;;;;;;29.85;12.85;;;;;;;;;;4944858;28;20046;-67
2022/09/14 05:45:48;;;;;;;26.50;12.63;;;;;;;;;;4943231;28;20038;-67
2022/09/14 05:48:15;;;;;;;30.15;13.15;;;;;;;;;;4941656;28;20364;-68
2022/09/14 05:50:42;;;;;;;26.73;13.00;;;;;;;;;;4944135;28;20185;-67
2022/09/14 05:53:09;;;;;;;24.95;12.57;;;;;;;;;;4944924;28;20047;-67
2022/09/14 05:55:35;;;;;;;25.67;13.57;;;;;;;;;;4946807;28;20048;-67
2022/09/14 05:58:03;;;;;;;37.85;13.68;;;;;;;;;;4944718;28;20043;-68
2022/09/14 06:00:30;;;;;;;30.98;12.90;;;;;;;;;;4944967;28;20039;-68
2022/09/14 06:02:57;;;;;;;25.80;13.38;;;;;;;;;;4949350;28;20039;-69
2022/09/14 06:05:27;;;;;;;30.50;12.48;;;;;;;;;;4943794;28;20796;-68
2022/09/14 06:07:53;;;;;;;29.10;13.43;;;;;;;;;;4943507;28;20062;-67
2022/09/14 06:10:20;;;;;;;23.92;12.75;;;;;;;;;;4941647;28;20047;-66
2022/09/14 06:12:47;;;;;;;24.25;13.30;;;;;;;;;;4942356;28;20047;-66
2022/09/14 06:15:14;;;;;;;26.13;13.35;;;;;;;;;;4944756;28;20055;-67
2022/09/14 06:17:41;;;;;;;24.95;12.68;;;;;;;;;;4954078;28;20044;-68
2022/09/14 06:20:08;;;;;;;27.83;13.45;;;;;;;;;;4942803;28;20067;-67
2022/09/14 06:22:34;;;;;;;26.20;12.70;;;;;;;;;;4940434;28;20047;-67
2022/09/14 06:25:01;;;;;;;28.23;13.20;;;;;;;;;;4946422;28;20032;-67
2022/09/14 06:27:28;;;;;;;30.05;14.38;;;;;;;;;;4943616;28;20058;-69
2022/09/14 06:29:55;;;;;;;29.73;12.98;;;;;;;;;;4942858;28;21975;-68
2022/09/14 06:32:22;;;;;;;24.00;13.65;;;;;;;;;;4941075;28;20692;-68
2022/09/14 06:34:48;;;;;;;31.33;14.02;;;;;;;;;;4951807;28;20054;-68
2022/09/14 06:37:15;;;;;;;21.67;13.30;;;;;;;;;;4959289;28;20091;-66
2022/09/14 06:39:42;;;;;;;34.30;13.40;;;;;;;;;;4943386;28;20032;-67
2022/09/14 06:42:08;;;;;;;25.50;13.43;;;;;;;;;;4944576;28;20130;-67
2022/09/14 06:44:35;;;;;;;22.50;12.77;;;;;;;;;;4951401;28;20059;-66
2022/09/14 06:47:02;;;;;;;28.58;14.13;;;;;;;;;;4945626;28;20098;-66
2022/09/14 06:49:28;;;;;;;31.50;14.07;;;;;;;;;;4955726;28;20286;-67
2022/09/14 06:51:56;;;;;;;24.33;13.27;;;;;;;;;;4958058;28;20050;-66
2022/09/14 06:54:23;;;;;;;28.83;13.77;;;;;;;;;;4960450;28;20074;-67
2022/09/14 06:56:50;;;;;;;29.45;13.13;;;;;;;;;;4960375;28;20039;-67
2022/09/14 06:59:17;;;;;;;34.63;13.05;;;;;;;;;;4958099;28;20041;-66
2022/09/14 07:01:44;;;;;;;25.20;13.93;;;;;;;;;;4954918;28;20039;-67
2022/09/14 07:04:11;;;;;;;30.25;13.27;;;;;;;;;;4958598;28;20175;-67
2022/09/14 07:06:39;;;;;;;24.67;13.68;;;;;;;;;;4959213;28;20834;-65
2022/09/14 07:09:06;;;;;;;26.60;13.60;;;;;;;;;;4961227;28;20038;-67
2022/09/14 07:11:33;;;;;;;27.80;14.10;;;;;;;;;;4962815;28;20094;-67
2022/09/14 07:14:01;;;;;;;29.55;13.20;;;;;;;;;;4959892;28;20697;-67
2022/09/14 07:16:28;;;;;;;21.10;12.40;;;;;;;;;;4957801;28;20058;-65
2022/09/14 07:18:55;;;;;;;32.05;12.98;;;;;;;;;;4960207;28;20046;-66
2022/09/14 07:21:22;;;;;;;23.40;12.93;;;;;;;;;;4959723;28;20102;-66
2022/09/14 07:23:49;;;;;;;23.35;12.27;;;;;;;;;;4961005;28;20126;-67
2022/09/14 07:26:26;;;;;;;27.30;12.73;;;;;;;;;;4962662;28;20049;-67
2022/09/14 07:28:57;;;;;;;22.42;12.82;;;;;;;;;;4969983;28;20278;-67
2022/09/14 07:31:43;;;;;;;27.85;14.07;;;;;;;;;;4935665;28;20553;-67
2022/09/14 07:34:10;;;;;;;30.73;13.02;;;;;;;;;;4936750;28;20173;-67
2022/09/14 07:36:38;;;;;;;27.13;13.15;;;;;;;;;;4936322;28;21064;-66
2022/09/14 07:39:05;;;;;;;24.58;11.93;;;;;;;;;;4937453;28;20043;-66
2022/09/14 07:41:33;;;;;;;29.38;13.60;;;;;;;;;;4940293;28;20697;-66
2022/09/14 07:44:00;;;;;;;21.23;12.80;;;;;;;;;;4946775;28;20043;-66
2022/09/14 07:46:33;;;;;;;26.95;13.63;;;;;;;;;;4946520;28;20044;-65
2022/09/14 07:49:01;;;;;;;32.85;14.35;;;;;;;;;;4945305;28;20051;-66
2022/09/14 07:51:29;;;;;;;28.50;14.85;;;;;;;;;;4946331;28;20031;-65
2022/09/14 07:53:56;;;;;;;27.35;14.23;;;;;;;;;;4947030;28;20043;-66
2022/09/14 07:56:24;;;;;;;28.15;15.35;;;;;;;;;;4943312;28;20411;-67
2022/09/14 07:58:55;;;;;;;29.92;15.75;;;;;;;;;;4958497;28;20098;-67
2022/09/14 08:01:22;;;;;;;31.08;16.00;;;;;;;;;;4941075;28;20050;-67
2022/09/14 08:03:49;;;;;;;35.53;17.10;;;;;;;;;;4947030;28;20042;-66
2022/09/14 08:06:20;;;;;;;29.60;16.98;;;;;;;;;;4947026;28;20042;-67
2022/09/14 08:08:47;;;;;;;31.25;17.38;;;;;;;;;;4941299;28;20132;-66
2022/09/14 08:11:16;;;;;;;34.45;17.60;;;;;;;;;;4941784;28;20040;-66
2022/09/14 08:13:43;;;;;;;39.72;17.98;;;;;;;;;;4939226;28;20054;-67
2022/09/14 08:16:10;;;;;;;33.42;18.17;;;;;;;;;;4947692;28;20114;-66
2022/09/14 08:18:37;;;;;;;35.83;18.85;;;;;;;;;;4947131;28;20147;-67
2022/09/14 08:21:05;;;;;;;38.65;20.08;;;;;;;;;;4946370;28;20047;-67
2022/09/14 08:23:32;;;;;;;33.97;19.65;;;;;;;;;;4948327;28;20485;-66
2022/09/14 08:26:05;;;;;;;34.20;19.67;;;;;;;;;;4945332;28;20461;-67
2022/09/14 08:28:32;;;;;;;35.70;20.20;;;;;;;;;;4957911;28;20488;-67
2022/09/14 08:31:05;;;;;;;36.70;21.30;;;;;;;;;;4947310;28;20070;-67
2022/09/14 08:33:33;;;;;;;34.80;20.65;;;;;;;;;;4957525;28;20401;-67
2022/09/14 08:36:00;;;;;;;42.33;21.10;;;;;;;;;;4949378;28;20057;-67
2022/09/14 08:38:26;;;;;;;37.20;20.60;;;;;;;;;;4950884;28;20039;-67
2022/09/14 08:40:53;;;;;;;38.50;22.02;;;;;;;;;;4957430;28;20043;-67
2022/09/14 08:43:21;;;;;;;40.03;21.02;;;;;;;;;;4946219;28;20127;-67
2022/09/14 08:45:48;;;;;;;33.05;19.88;;;;;;;;;;4946959;28;20038;-67
2022/09/14 08:48:32;;;;;;;37.55;21.13;;;;;;;;;;4946124;28;20054;-67
2022/09/14 08:50:59;;;;;;;38.30;19.30;;;;;;;;;;4945018;28;20062;-67
2022/09/14 08:53:26;;;;;;;33.33;17.90;;;;;;;;;;4946591;28;20042;-67
2022/09/14 08:55:59;;;;;;;33.95;17.70;;;;;;;;;;4953069;28;20061;-67
2022/09/14 08:58:43;;;;;;;34.05;17.58;;;;;;;;;;4948588;28;20047;-67
2022/09/14 09:01:16;;;;;;;28.92;16.45;;;;;;;;;;4950788;28;20059;-66
2022/09/14 09:03:51;;;;;;;33.17;16.00;;;;;;;;;;4946958;28;20035;-66
2022/09/14 09:06:22;;;;;;;28.70;16.23;;;;;;;;;;4950964;28;20039;-66
2022/09/14 09:08:58;;;;;;;27.17;16.00;;;;;;;;;;4964167;28;20046;-67
2022/09/14 09:11:27;;;;;;;33.05;15.50;;;;;;;;;;4962977;28;20047;-65
2022/09/14 09:13:55;;;;;;;26.40;14.23;;;;;;;;;;4949297;28;21618;-66
2022/09/14 09:16:23;;;;;;;25.80;15.35;;;;;;;;;;4949083;28;20035;-66
2022/09/14 09:19:02;;;;;;;28.85;15.98;;;;;;;;;;4962876;28;20046;-67
2022/09/14 09:21:31;;;;;;;25.25;14.18;;;;;;;;;;4967874;28;20594;-66
2022/09/14 09:24:16;;;;;;;22.25;14.23;;;;;;;;;;4953552;28;20054;-65
2022/09/14 09:26:42;;;;;;;28.52;14.73;;;;;;;;;;4949173;28;20039;-67
2022/09/14 09:29:09;;;;;;;35.00;16.05;;;;;;;;;;4947657;28;21826;-66
2022/09/14 09:31:38;;;;;;;27.45;14.77;;;;;;;;;;4946014;28;20047;-66
2022/09/14 09:34:05;;;;;;;26.00;15.00;;;;;;;;;;4961863;28;20066;-66
2022/09/14 09:36:36;;;;;;;29.38;14.70;;;;;;;;;;4947332;28;20073;-66
2022/09/14 09:39:04;;;;;;;26.40;14.30;;;;;;;;;;4946079;28;20043;-66
2022/09/14 09:41:35;;;;;;;27.98;15.45;;;;;;;;;;4956296;28;20031;-66
2022/09/14 09:44:05;;;;;;;23.20;14.73;;;;;;;;;;4945969;28;20048;-67
2022/09/14 09:46:35;;;;;;;22.83;14.00;;;;;;;;;;4945235;28;20153;-67
2022/09/14 09:49:04;;;;;;;30.35;16.15;;;;;;;;;;4943497;28;20047;-66
2022/09/14 09:51:31;;;;;;;28.83;14.77;;;;;;;;;;4946272;28;20038;-67
2022/09/14 09:54:06;;;;;;;25.83;15.25;;;;;;;;;;4955515;28;20043;-66
2022/09/14 09:56:33;;;;;;;29.58;15.38;;;;;;;;;;4940666;28;20521;-66
2022/09/14 09:59:00;;;;;;;25.77;14.77;;;;;;;;;;4944419;28;20047;-66
2022/09/14 10:01:34;;;;;;;25.75;14.57;;;;;;;;;;4957740;28;20061;-66
2022/09/14 10:04:06;;;;;;;26.45;14.82;;;;;;;;;;4943605;28;20028;-65
2022/09/14 10:06:40;;;;;;;27.23;15.32;;;;;;;;;;4945577;28;20669;-66
2022/09/14 10:09:12;;;;;;;29.38;15.48;;;;;;;;;;4942426;28;20047;-67
2022/09/14 10:11:39;;;;;;;29.23;14.15;;;;;;;;;;4941500;28;20051;-66
2022/09/14 10:14:17;;;;;;;26.10;14.38;;;;;;;;;;4956180;28;20090;-67
2022/09/14 10:16:44;;;;;;;30.50;15.50;;;;;;;;;;4942792;28;20048;-67
2022/09/14 10:19:14;;;;;;;29.17;15.25;;;;;;;;;;4945597;28;20448;-66
2022/09/14 10:22:01;;;;;;;29.15;14.98;;;;;;;;;;4944012;28;20103;-67
2022/09/14 10:24:27;;;;;;;28.25;15.25;;;;;;;;;;4943812;28;20509;-68
2022/09/14 10:26:54;;;;;;;32.53;15.85;;;;;;;;;;4943613;28;20079;-68
2022/09/14 10:29:23;;;;;;;29.98;15.27;;;;;;;;;;4943015;28;20219;-66
2022/09/14 10:31:50;;;;;;;28.38;15.38;;;;;;;;;;4943471;28;20050;-67
2022/09/14 10:34:19;;;;;;;30.45;15.95;;;;;;;;;;4951947;28;20380;-67
2022/09/14 10:36:52;;;;;;;29.95;16.17;;;;;;;;;;4943191;28;20097;-68
2022/09/14 10:39:22;;;;;;;29.27;16.30;;;;;;;;;;4958866;28;20043;-68
2022/09/14 10:41:51;;;;;;;29.00;16.52;;;;;;;;;;4945035;28;20043;-66
2022/09/14 10:44:20;;;;;;;30.35;16.25;;;;;;;;;;4948267;28;20401;-67
2022/09/14 10:47:08;;;;;;;30.00;15.80;;;;;;;;;;4955042;28;20134;-68
2022/09/14 10:49:41;;;;;;;29.23;17.23;;;;;;;;;;4940639;28;20071;-67
2022/09/14 10:52:15;;;;;;;28.77;16.27;;;;;;;;;;4939681;28;20043;-66
2022/09/14 10:55:00;;;;;;;28.02;15.82;;;;;;;;;;4953018;28;20052;-67
2022/09/14 10:57:45;;;;;;;32.38;16.42;;;;;;;;;;4941651;28;20090;-67
2022/09/14 11:00:13;;;;;;;33.60;16.48;;;;;;;;;;4939389;28;20126;-67
2022/09/14 11:02:43;;;;;;;32.28;17.50;;;;;;;;;;4944657;28;20242;-67
2022/09/14 11:05:15;;;;;;;32.03;16.75;;;;;;;;;;4952859;28;20059;-68
2022/09/14 11:07:51;;;;;;;33.05;16.15;;;;;;;;;;4943198;28;20134;-67
2022/09/14 11:10:28;;;;;;;29.13;15.57;;;;;;;;;;4947933;28;20046;-67
2022/09/14 11:12:54;;;;;;;31.38;15.48;;;;;;;;;;4954122;28;20050;-67
2022/09/14 11:15:21;;;;;;;30.75;15.90;;;;;;;;;;4940578;28;20059;-67
2022/09/14 11:18:06;;;;;;;29.48;16.08;;;;;;;;;;4944884;28;20047;-67
2022/09/14 11:20:53;;;;;;;37.00;16.13;;;;;;;;;;4940768;28;20043;-67
2022/09/14 11:23:39;;;;;;;32.95;16.55;;;;;;;;;;4943928;28;20040;-68
2022/09/14 11:26:13;;;;;;;29.75;16.00;;;;;;;;;;4951220;28;20043;-68
2022/09/14 11:28:52;;;;;;;27.02;15.52;;;;;;;;;;4944972;28;20038;-69
2022/09/14 11:31:26;;;;;;;33.78;16.60;;;;;;;;;;4959617;28;20050;-67
2022/09/14 11:33:55;;;;;;;30.25;15.90;;;;;;;;;;4941431;28;20050;-67
2022/09/14 11:36:25;;;;;;;29.33;15.43;;;;;;;;;;4946939;28;20149;-67
2022/09/14 11:38:55;;;;;;;28.83;15.88;;;;;;;;;;4951946;28;20145;-67
2022/09/14 11:41:26;;;;;;;33.50;15.73;;;;;;;;;;4945913;28;20046;-64
2022/09/14 11:43:53;;;;;;;28.90;15.02;;;;;;;;;;4958385;28;20105;-66
2022/09/14 11:46:24;;;;;;;30.20;15.52;;;;;;;;;;4957750;28;20392;-68
2022/09/14 11:48:56;;;;;;;26.45;15.32;;;;;;;;;;4945820;28;20078;-68
2022/09/14 11:51:46;;;;;;;29.88;15.43;;;;;;;;;;4953206;28;20408;-67
2022/09/14 11:54:20;;;;;;;26.83;15.70;;;;;;;;;;4948802;28;20507;-66
2022/09/14 11:56:57;;;;;;;29.08;15.40;;;;;;;;;;4969927;28;20043;-67
2022/09/14 11:59:49;;;;;;;28.52;15.25;;;;;;;;;;4975096;28;20516;-67
2022/09/14 12:02:25;;;;;;;28.35;15.93;;;;;;;;;;4957556;28;20126;-67
2022/09/14 12:05:07;;;;;;;29.52;12.95;;;;;;;;;;4944624;28;20043;-68
2022/09/14 12:07:49;;;;;;;26.75;16.02;;;;;;;;;;4945346;28;20437;-67
2022/09/14 12:10:18;;;;;;;27.77;15.45;;;;;;;;;;4946404;28;20036;-67
2022/09/14 12:12:53;;;;;;;27.73;16.20;;;;;;;;;;4959635;28;20052;-67
2022/09/14 12:15:22;;;;;;;29.65;16.15;;;;;;;;;;4946699;28;20050;-68
2022/09/14 12:17:50;;;;;;;25.42;15.70;;;;;;;;;;4971236;28;20043;-67
2022/09/14 12:20:19;;;;;;;28.77;15.63;;;;;;;;;;4940715;28;20035;-67
2022/09/14 12:22:46;;;;;;;30.05;16.55;;;;;;;;;;4970430;28;20047;-66
2022/09/14 12:25:21;;;;;;;30.30;15.95;;;;;;;;;;4940737;28;20047;-65
2022/09/14 12:27:49;;;;;;;33.90;18.27;;;;;;;;;;4945697;28;20070;-63
2022/09/14 12:30:34;;;;;;;31.38;17.13;;;;;;;;;;4946798;28;20412;-66
2022/09/14 12:33:01;;;;;;;32.60;16.75;;;;;;;;;;4941739;28;20139;-65
2022/09/14 12:35:40;;;;;;;37.10;16.58;;;;;;;;;;4942831;28;20166;-65
2022/09/14 12:38:25;;;;;;;31.13;17.73;;;;;;;;;;4957147;28;20041;-65
2022/09/14 12:40:52;;;;;;;35.42;17.35;;;;;;;;;;4942533;28;20047;-65
2022/09/14 12:43:33;;;;;;;28.92;16.27;;;;;;;;;;4946072;28;20038;-68
2022/09/14 12:46:01;;;;;;;31.02;16.55;;;;;;;;;;4944538;28;20043;-66
2022/09/14 12:48:54;;;;;;;33.08;16.67;;;;;;;;;;4941246;28;20042;-65
2022/09/14 12:51:30;;;;;;;26.30;16.55;;;;;;;;;;4941756;28;20031;-63
2022/09/14 12:54:09;;;;;;;27.38;17.27;;;;;;;;;;4943321;28;20669;-64
2022/09/14 12:56:36;;;;;;;30.80;17.20;;;;;;;;;;4951751;28;20046;-65
2022/09/14 12:59:31;;;;;;;30.15;16.27;;;;;;;;;;4954431;28;20070;-65
2022/09/14 13:02:16;;;;;;;36.22;18.50;;;;;;;;;;4936086;28;20054;-65
2022/09/14 13:04:44;;;;;;;31.20;17.17;;;;;;;;;;4943052;28;20043;-65
2022/09/14 13:07:16;;;;;;;31.95;17.13;;;;;;;;;;4943193;28;20117;-64
2022/09/14 13:09:51;;;;;;;30.02;17.15;;;;;;;;;;4946702;28;20039;-64
2022/09/14 13:12:27;;;;;;;32.35;17.42;;;;;;;;;;4944590;28;20050;-67
2022/09/14 13:14:58;;;;;;;32.50;17.05;;;;;;;;;;4940511;28;20067;-64
2022/09/14 13:17:25;;;;;;;30.85;17.45;;;;;;;;;;4943657;28;20074;-65
2022/09/14 13:20:17;;;;;;;28.67;17.27;;;;;;;;;;4976606;28;20272;-66
2022/09/14 13:22:43;;;;;;;27.60;16.63;;;;;;;;;;4980458;28;20042;-66
2022/09/14 13:25:25;;;;;;;31.98;17.63;;;;;;;;;;4979714;28;20039;-65
2022/09/14 13:27:52;;;;;;;29.67;17.60;;;;;;;;;;4970912;28;20515;-65
2022/09/14 13:30:27;;;;;;;30.70;18.17;;;;;;;;;;4991629;28;20046;-66
2022/09/14 13:32:56;;;;;;;34.65;17.40;;;;;;;;;;4965834;28;20042;-66
2022/09/14 13:35:40;;;;;;;33.60;17.23;;;;;;;;;;4990684;28;20065;-65
2022/09/14 13:38:15;;;;;;;33.42;17.67;;;;;;;;;;4977066;28;20093;-66
2022/09/14 13:40:41;;;;;;;27.58;16.88;;;;;;;;;;4980265;28;20042;-66
2022/09/14 13:43:08;;;;;;;33.67;17.92;;;;;;;;;;4977458;28;20039;-65
2022/09/14 13:45:35;;;;;;;31.85;17.70;;;;;;;;;;4978845;28;20238;-66
2022/09/14 13:48:03;;;;;;;35.83;18.77;;;;;;;;;;4980964;28;20495;-65
2022/09/14 13:50:30;;;;;;;35.58;18.48;;;;;;;;;;4977998;28;20034;-65
2022/09/14 13:52:57;;;;;;;33.13;17.98;;;;;;;;;;4980030;28;20430;-65
2022/09/14 13:55:42;;;;;;;30.77;16.65;;;;;;;;;;4998234;28;20519;-66
2022/09/14 13:58:12;;;;;;;35.13;18.17;;;;;;;;;;4956237;28;20093;-66
2022/09/14 14:00:47;;;;;;;34.45;18.38;;;;;;;;;;4943623;28;20054;-66
2022/09/14 14:03:23;;;;;;;33.75;18.45;;;;;;;;;;4949684;28;20046;-67
2022/09/14 14:05:49;;;;;;;32.30;18.27;;;;;;;;;;4944698;28;20039;-64
2022/09/14 14:08:27;;;;;;;31.02;18.15;;;;;;;;;;4947836;28;20043;-65
2022/09/14 14:10:54;;;;;;;33.08;17.92;;;;;;;;;;4946840;28;20064;-67
2022/09/14 14:13:25;;;;;;;32.38;16.73;;;;;;;;;;4945693;28;20046;-66
2022/09/14 14:15:52;;;;;;;31.67;18.13;;;;;;;;;;4946132;28;20419;-66
2022/09/14 14:18:39;;;;;;;40.28;17.65;;;;;;;;;;4947209;28;20059;-68
2022/09/14 14:21:13;;;;;;;36.72;18.70;;;;;;;;;;4944131;28;20066;-67
2022/09/14 14:23:39;;;;;;;31.30;18.23;;;;;;;;;;4944330;28;20161;-66
2022/09/14 14:26:11;;;;;;;35.35;19.30;;;;;;;;;;4946436;28;20049;-66
2022/09/14 14:28:39;;;;;;;32.92;18.10;;;;;;;;;;4946937;28;20036;-66
2022/09/14 14:31:08;;;;;;;33.50;18.80;;;;;;;;;;4943408;28;20179;-66
2022/09/14 14:33:35;;;;;;;32.90;18.60;;;;;;;;;;4957563;28;20032;-66
2022/09/14 14:36:08;;;;;;;30.42;17.45;;;;;;;;;;4945451;28;20876;-66
2022/09/14 14:38:35;;;;;;;35.20;18.70;;;;;;;;;;4943804;28;20047;-67
2022/09/14 14:41:01;;;;;;;40.20;18.85;;;;;;;;;;4943995;28;20046;-67
2022/09/14 14:43:28;;;;;;;32.72;18.90;;;;;;;;;;4945359;28;20045;-67
2022/09/14 14:45:59;;;;;;;34.50;17.83;;;;;;;;;;4961191;28;21759;-67
2022/09/14 14:48:25;;;;;;;32.30;17.63;;;;;;;;;;4959338;28;20089;-66
2022/09/14 14:50:54;;;;;;;37.00;18.88;;;;;;;;;;4944475;28;20110;-68
2022/09/14 14:53:22;;;;;;;41.47;18.38;;;;;;;;;;4943275;28;20040;-67
2022/09/14 14:55:48;;;;;;;29.35;17.33;;;;;;;;;;4946306;28;20058;-67
2022/09/14 14:58:16;;;;;;;34.67;18.50;;;;;;;;;;4944882;28;20022;-67
2022/09/14 15:00:46;;;;;;;33.97;18.63;;;;;;;;;;4945645;28;20057;-66
2022/09/14 15:03:14;;;;;;;31.80;18.38;;;;;;;;;;4943202;28;20054;-67
2022/09/14 15:05:44;;;;;;;34.55;18.85;;;;;;;;;;4943862;28;20643;-67
2022/09/14 15:08:11;;;;;;;31.35;17.55;;;;;;;;;;4946002;28;20035;-67
2022/09/14 15:10:39;;;;;;;29.73;17.88;;;;;;;;;;4940236;28;20042;-67
2022/09/14 15:13:06;;;;;;;30.58;18.10;;;;;;;;;;4944892;28;21484;-67
2022/09/14 15:15:33;;;;;;;34.70;17.30;;;;;;;;;;4954557;28;20638;-66
2022/09/14 15:17:59;;;;;;;31.63;17.90;;;;;;;;;;4943274;28;20526;-66
2022/09/14 15:20:26;;;;;;;28.20;17.02;;;;;;;;;;4940345;28;20054;-66
2022/09/14 15:22:53;;;;;;;29.58;16.10;;;;;;;;;;4945047;28;20047;-66
2022/09/14 15:25:20;;;;;;;37.55;18.38;;;;;;;;;;4954058;28;20090;-67
2022/09/14 15:27:48;;;;;;;35.28;18.50;;;;;;;;;;4955361;28;20039;-67
2022/09/14 15:30:15;;;;;;;37.25;17.85;;;;;;;;;;4940711;28;20441;-67
2022/09/14 15:32:41;;;;;;;33.60;17.50;;;;;;;;;;4942533;28;20043;-66
2022/09/14 15:35:10;;;;;;;31.27;18.10;;;;;;;;;;4943909;28;20048;-67
2022/09/14 15:37:36;;;;;;;30.45;17.70;;;;;;;;;;4952834;28;20044;-67
2022/09/14 15:40:03;;;;;;;28.92;16.30;;;;;;;;;;4945325;28;20131;-66
2022/09/14 15:42:30;;;;;;;31.75;17.35;;;;;;;;;;4949516;28;20063;-66
2022/09/14 15:44:57;;;;;;;32.88;17.05;;;;;;;;;;4941262;28;20043;-67
2022/09/14 15:47:23;;;;;;;31.58;17.38;;;;;;;;;;4943124;28;20411;-67
2022/09/14 15:49:53;;;;;;;31.98;16.77;;;;;;;;;;4945891;28;20043;-66
2022/09/14 15:52:20;;;;;;;26.33;15.95;;;;;;;;;;4942763;28;20175;-66
2022/09/14 15:54:48;;;;;;;29.58;15.90;;;;;;;;;;4942999;28;20692;-66
2022/09/14 15:57:14;;;;;;;29.77;15.70;;;;;;;;;;4949674;28;20390;-67
2022/09/14 15:59:41;;;;;;;27.00;15.52;;;;;;;;;;4944256;28;20118;-66
2022/09/14 16:02:10;;;;;;;32.60;16.55;;;;;;;;;;4958460;28;20035;-66
2022/09/14 16:04:38;;;;;;;29.20;15.35;;;;;;;;;;4958743;28;20043;-67
2022/09/14 16:07:08;;;;;;;24.08;15.25;;;;;;;;;;4949444;28;20183;-67
2022/09/14 16:09:36;;;;;;;25.27;16.02;;;;;;;;;;4950267;28;20031;-66
2022/09/14 16:12:02;;;;;;;26.55;15.77;;;;;;;;;;4949089;28;20035;-66